SKP961 YBBN-YWGA
Flight info
| Callsign | SKP961 |
|---|---|
| Flight time | N/A |
| Altitude | 32000 |
| Route | WACKO V250 LEBIT V412 ROM T11 DOVUB/N0466F340 T11 AS T85 RAFFY |
| Aircraft | A319/M-SDE3FGHIRWY/LB1 |
Departure
| Time | 2026-05-05 02:18 |
|---|---|
| Airport | Brisbane International Airport (YBBN) |
Arrival
| Time | N/A |
|---|---|
| Airport | Port Hedland/Wodgina Airport (YWGA) |
| Time | Latitude | Longitude | Altitude | Speed | Heading |
|---|---|---|---|---|---|
| 2026-05-05 01:11 | -27.41805 | 153.10062 | 23 ft | 0 kts | 136° |
| 2026-05-05 02:02 | -27.41790 | 153.10047 | 21 ft | 4 kts | 136° |
| 2026-05-05 02:02 | -27.41771 | 153.10026 | 21 ft | 2 kts | 136° |
| 2026-05-05 02:02 | -27.41755 | 153.10009 | 23 ft | 4 kts | 135° |
| 2026-05-05 02:03 | -27.41738 | 153.09986 | 25 ft | 4 kts | 117° |
| 2026-05-05 02:03 | -27.41733 | 153.09965 | 21 ft | 3 kts | 49° |
| 2026-05-05 02:03 | -27.41735 | 153.09962 | 25 ft | 0 kts | 45° |
| 2026-05-05 02:05 | -27.41730 | 153.09968 | 21 ft | 3 kts | 45° |
| 2026-05-05 02:05 | -27.41702 | 153.09988 | 21 ft | 6 kts | 16° |
| 2026-05-05 02:06 | -27.41667 | 153.09977 | 21 ft | 5 kts | 325° |
| 2026-05-05 02:06 | -27.41633 | 153.09941 | 23 ft | 8 kts | 315° |
| 2026-05-05 02:06 | -27.41585 | 153.09887 | 22 ft | 11 kts | 315° |
| 2026-05-05 02:06 | -27.41521 | 153.09869 | 22 ft | 10 kts | 26° |
| 2026-05-05 02:07 | -27.41469 | 153.09928 | 23 ft | 12 kts | 48° |
| 2026-05-05 02:07 | -27.41406 | 153.10003 | 21 ft | 14 kts | 45° |
| 2026-05-05 02:07 | -27.41340 | 153.10078 | 22 ft | 13 kts | 45° |
| 2026-05-05 02:07 | -27.41276 | 153.10152 | 22 ft | 13 kts | 46° |
| 2026-05-05 02:08 | -27.41215 | 153.10224 | 21 ft | 13 kts | 46° |
| 2026-05-05 02:08 | -27.41155 | 153.10294 | 21 ft | 12 kts | 46° |
| 2026-05-05 02:08 | -27.41096 | 153.10363 | 23 ft | 13 kts | 46° |
| 2026-05-05 02:08 | -27.41026 | 153.10446 | 23 ft | 16 kts | 46° |
| 2026-05-05 02:09 | -27.40943 | 153.10544 | 21 ft | 18 kts | 46° |
| 2026-05-05 02:09 | -27.40887 | 153.10669 | 21 ft | 18 kts | 79° |
| 2026-05-05 02:09 | -27.40892 | 153.10804 | 21 ft | 17 kts | 104° |
| 2026-05-05 02:09 | -27.40941 | 153.10927 | 21 ft | 17 kts | 107° |
| 2026-05-05 02:10 | -27.40918 | 153.11047 | 21 ft | 16 kts | 54° |
| 2026-05-05 02:10 | -27.40840 | 153.11136 | 21 ft | 16 kts | 37° |
| 2026-05-05 02:10 | -27.40744 | 153.11191 | 22 ft | 15 kts | 26° |
| 2026-05-05 02:10 | -27.40652 | 153.11246 | 21 ft | 15 kts | 26° |
| 2026-05-05 02:11 | -27.40561 | 153.11296 | 21 ft | 14 kts | 26° |
| 2026-05-05 02:11 | -27.40474 | 153.11346 | 23 ft | 14 kts | 26° |
| 2026-05-05 02:11 | -27.40387 | 153.11396 | 21 ft | 15 kts | 27° |
| 2026-05-05 02:11 | -27.40292 | 153.11450 | 21 ft | 15 kts | 27° |
| 2026-05-05 02:12 | -27.40199 | 153.11503 | 22 ft | 15 kts | 27° |
| 2026-05-05 02:12 | -27.40023 | 153.11603 | 22 ft | 9 kts | 27° |
| 2026-05-05 02:12 | -27.40005 | 153.11662 | 21 ft | 9 kts | 113° |
| 2026-05-05 02:13 | -27.40026 | 153.11732 | 21 ft | 11 kts | 77° |
| 2026-05-05 02:13 | -27.39936 | 153.11794 | 21 ft | 19 kts | 27° |
| 2026-05-05 02:13 | -27.39805 | 153.11868 | 21 ft | 23 kts | 27° |
| 2026-05-05 02:13 | -27.39658 | 153.11952 | 21 ft | 23 kts | 27° |
| 2026-05-05 02:14 | -27.39519 | 153.12032 | 21 ft | 22 kts | 27° |
| 2026-05-05 02:14 | -27.39380 | 153.12111 | 23 ft | 22 kts | 27° |
| 2026-05-05 02:14 | -27.39248 | 153.12187 | 23 ft | 21 kts | 27° |
| 2026-05-05 02:14 | -27.39119 | 153.12261 | 22 ft | 21 kts | 27° |
| 2026-05-05 02:15 | -27.38992 | 153.12333 | 23 ft | 20 kts | 27° |
| 2026-05-05 02:15 | -27.38869 | 153.12403 | 21 ft | 20 kts | 27° |
| 2026-05-05 02:15 | -27.38749 | 153.12472 | 21 ft | 19 kts | 27° |
| 2026-05-05 02:15 | -27.38634 | 153.12538 | 21 ft | 18 kts | 27° |
| 2026-05-05 02:16 | -27.38523 | 153.12601 | 22 ft | 17 kts | 27° |
| 2026-05-05 02:16 | -27.38440 | 153.12649 | 22 ft | 10 kts | 29° |
| 2026-05-05 02:16 | -27.38419 | 153.12710 | 22 ft | 8 kts | 104° |
| 2026-05-05 02:16 | -27.38446 | 153.12764 | 23 ft | 7 kts | 118° |
| 2026-05-05 02:17 | -27.38471 | 153.12818 | 24 ft | 8 kts | 118° |
| 2026-05-05 02:17 | -27.38519 | 153.12829 | 22 ft | 9 kts | 205° |
| 2026-05-05 02:17 | -27.38599 | 153.12783 | 22 ft | 26 kts | 207° |
| 2026-05-05 02:17 | -27.39005 | 153.12552 | 19 ft | 103 kts | 207° |
| 2026-05-05 02:18 | -27.39843 | 153.12081 | 30 ft | 162 kts | 205° |
| 2026-05-05 02:18 | -27.40817 | 153.11498 | 666 ft | 152 kts | 207° |
| 2026-05-05 02:18 | -27.41746 | 153.10941 | 1211 ft | 155 kts | 208° |
| 2026-05-05 02:18 | -27.42737 | 153.10357 | 1675 ft | 164 kts | 207° |
| 2026-05-05 02:19 | -27.43793 | 153.09755 | 1988 ft | 180 kts | 206° |
| 2026-05-05 02:19 | -27.44980 | 153.09082 | 2180 ft | 202 kts | 207° |
| 2026-05-05 02:19 | -27.46305 | 153.08326 | 2360 ft | 226 kts | 207° |
| 2026-05-05 02:19 | -27.47735 | 153.07408 | 2665 ft | 247 kts | 220° |
| 2026-05-05 02:20 | -27.48629 | 153.05756 | 3256 ft | 254 kts | 257° |
| 2026-05-05 02:20 | -27.48773 | 153.03766 | 3990 ft | 257 kts | 271° |
| 2026-05-05 02:20 | -27.48635 | 153.01748 | 4703 ft | 262 kts | 275° |
| 2026-05-05 02:20 | -27.48437 | 152.99710 | 5338 ft | 262 kts | 275° |
| 2026-05-05 02:21 | -27.48261 | 152.97654 | 6118 ft | 265 kts | 273° |
| 2026-05-05 02:21 | -27.48129 | 152.95573 | 6831 ft | 268 kts | 272° |
| 2026-05-05 02:21 | -27.47994 | 152.93469 | 7485 ft | 274 kts | 278° |
| 2026-05-05 02:21 | -27.47199 | 152.91484 | 7967 ft | 286 kts | 309° |
| 2026-05-05 02:22 | -27.45620 | 152.90104 | 8603 ft | 292 kts | 334° |
| 2026-05-05 02:22 | -27.43799 | 152.89135 | 9301 ft | 295 kts | 334° |
| 2026-05-05 02:22 | -27.41933 | 152.88140 | 10008 ft | 298 kts | 334° |
| 2026-05-05 02:22 | -27.40013 | 152.87107 | 10319 ft | 316 kts | 334° |
| 2026-05-05 02:23 | -27.37959 | 152.85996 | 10446 ft | 339 kts | 333° |
| 2026-05-05 02:23 | -27.35766 | 152.84808 | 10568 ft | 360 kts | 334° |
| 2026-05-05 02:23 | -27.33469 | 152.83560 | 10884 ft | 372 kts | 333° |
| 2026-05-05 02:23 | -27.31128 | 152.82291 | 11454 ft | 375 kts | 334° |
| 2026-05-05 02:24 | -27.29568 | 152.81449 | 11872 ft | 376 kts | 333° |
| 2026-05-05 02:24 | -27.27204 | 152.80175 | 12543 ft | 377 kts | 333° |
| 2026-05-05 02:24 | -27.24843 | 152.78904 | 13189 ft | 377 kts | 333° |
| 2026-05-05 02:24 | -27.22485 | 152.77598 | 13834 ft | 377 kts | 331° |
| 2026-05-05 02:25 | -27.20278 | 152.76010 | 14374 ft | 377 kts | 319° |
| 2026-05-05 02:25 | -27.18448 | 152.73911 | 14908 ft | 377 kts | 308° |
| 2026-05-05 02:25 | -27.17020 | 152.71443 | 15438 ft | 377 kts | 298° |
| 2026-05-05 02:25 | -27.15814 | 152.68831 | 15971 ft | 378 kts | 297° |
| 2026-05-05 02:26 | -27.14588 | 152.66215 | 16500 ft | 379 kts | 298° |
| 2026-05-05 02:26 | -27.13350 | 152.63596 | 17041 ft | 380 kts | 298° |
| 2026-05-05 02:26 | -27.12108 | 152.60975 | 17564 ft | 381 kts | 298° |
| 2026-05-05 02:26 | -27.10859 | 152.58342 | 18067 ft | 382 kts | 298° |
| 2026-05-05 02:27 | -27.09609 | 152.55707 | 18532 ft | 383 kts | 298° |
| 2026-05-05 02:27 | -27.08376 | 152.53097 | 18926 ft | 384 kts | 298° |
| 2026-05-05 02:27 | -27.07127 | 152.50450 | 19353 ft | 385 kts | 298° |
| 2026-05-05 02:27 | -27.05878 | 152.47794 | 19786 ft | 385 kts | 298° |
| 2026-05-05 02:28 | -27.04631 | 152.45138 | 20208 ft | 385 kts | 298° |
| 2026-05-05 02:28 | -27.03377 | 152.42478 | 20618 ft | 386 kts | 298° |
| 2026-05-05 02:28 | -27.02119 | 152.39820 | 21039 ft | 386 kts | 298° |
| 2026-05-05 02:28 | -27.00857 | 152.37156 | 21433 ft | 387 kts | 298° |
| 2026-05-05 02:29 | -26.99596 | 152.34488 | 21811 ft | 388 kts | 298° |
| 2026-05-05 02:29 | -26.98329 | 152.31817 | 22211 ft | 388 kts | 298° |
| 2026-05-05 02:29 | -26.97061 | 152.29146 | 22606 ft | 389 kts | 298° |
| 2026-05-05 02:29 | -26.95791 | 152.26468 | 22977 ft | 389 kts | 297° |
| 2026-05-05 02:30 | -26.94517 | 152.23777 | 23331 ft | 390 kts | 298° |
| 2026-05-05 02:30 | -26.93243 | 152.21090 | 23682 ft | 390 kts | 298° |
| 2026-05-05 02:30 | -26.91965 | 152.18405 | 23979 ft | 391 kts | 298° |
| 2026-05-05 02:30 | -26.90681 | 152.15715 | 24283 ft | 391 kts | 298° |
| 2026-05-05 02:31 | -26.89413 | 152.13057 | 24577 ft | 392 kts | 298° |
| 2026-05-05 02:31 | -26.88127 | 152.10355 | 24845 ft | 393 kts | 298° |
| 2026-05-05 02:31 | -26.86839 | 152.07652 | 25132 ft | 394 kts | 298° |
| 2026-05-05 02:31 | -26.85542 | 152.04937 | 25357 ft | 396 kts | 298° |
| 2026-05-05 02:32 | -26.84241 | 152.02215 | 25595 ft | 397 kts | 298° |
| 2026-05-05 02:32 | -26.82936 | 151.99483 | 25865 ft | 398 kts | 298° |
| 2026-05-05 02:32 | -26.81641 | 151.96744 | 26160 ft | 398 kts | 296° |
| 2026-05-05 02:32 | -26.80641 | 151.93854 | 26444 ft | 400 kts | 287° |
| 2026-05-05 02:33 | -26.80126 | 151.90787 | 26694 ft | 404 kts | 278° |
| 2026-05-05 02:33 | -26.79905 | 151.87642 | 26946 ft | 405 kts | 278° |
| 2026-05-05 02:33 | -26.79684 | 151.84495 | 27194 ft | 406 kts | 278° |
| 2026-05-05 02:33 | -26.79457 | 151.81337 | 27444 ft | 407 kts | 278° |
| 2026-05-05 02:34 | -26.79229 | 151.78178 | 27700 ft | 408 kts | 278° |
| 2026-05-05 02:34 | -26.78999 | 151.75017 | 28012 ft | 407 kts | 278° |
| 2026-05-05 02:34 | -26.78771 | 151.71873 | 28388 ft | 404 kts | 278° |
| 2026-05-05 02:34 | -26.78542 | 151.68744 | 28799 ft | 402 kts | 278° |
| 2026-05-05 02:35 | -26.78319 | 151.65678 | 29202 ft | 399 kts | 279° |
| 2026-05-05 02:35 | -26.78091 | 151.62590 | 29578 ft | 396 kts | 279° |
| 2026-05-05 02:35 | -26.77862 | 151.59523 | 29937 ft | 395 kts | 279° |
| 2026-05-05 02:35 | -26.77634 | 151.56463 | 30273 ft | 393 kts | 279° |
| 2026-05-05 02:36 | -26.77408 | 151.53423 | 30581 ft | 391 kts | 279° |
| 2026-05-05 02:36 | -26.77182 | 151.50398 | 30863 ft | 390 kts | 279° |
| 2026-05-05 02:36 | -26.76956 | 151.47375 | 31142 ft | 389 kts | 279° |
| 2026-05-05 02:36 | -26.76731 | 151.44364 | 31428 ft | 387 kts | 279° |
| 2026-05-05 02:37 | -26.76510 | 151.41368 | 31731 ft | 386 kts | 279° |
| 2026-05-05 02:37 | -26.76287 | 151.38376 | 31997 ft | 385 kts | 279° |
| 2026-05-05 02:37 | -26.76062 | 151.35391 | 32074 ft | 385 kts | 279° |
| 2026-05-05 02:38 | -26.75608 | 151.29429 | 32080 ft | 385 kts | 279° |
| 2026-05-05 02:38 | -26.75156 | 151.23463 | 32081 ft | 385 kts | 279° |
| 2026-05-05 02:39 | -26.74698 | 151.17500 | 32079 ft | 385 kts | 279° |
| 2026-05-05 02:39 | -26.74238 | 151.11543 | 32078 ft | 384 kts | 279° |
| 2026-05-05 02:40 | -26.73772 | 151.05584 | 32072 ft | 384 kts | 279° |
| 2026-05-05 02:40 | -26.73312 | 150.99628 | 32072 ft | 384 kts | 279° |
| 2026-05-05 02:41 | -26.72852 | 150.93672 | 32071 ft | 384 kts | 279° |
| 2026-05-05 02:41 | -26.72387 | 150.87723 | 32069 ft | 384 kts | 279° |
| 2026-05-05 02:42 | -26.71921 | 150.81805 | 32064 ft | 384 kts | 279° |
| 2026-05-05 02:42 | -26.71447 | 150.75848 | 32063 ft | 384 kts | 280° |
| 2026-05-05 02:43 | -26.70965 | 150.69895 | 32072 ft | 385 kts | 280° |
| 2026-05-05 02:43 | -26.70488 | 150.63933 | 32071 ft | 385 kts | 280° |
| 2026-05-05 02:44 | -26.70008 | 150.57979 | 32072 ft | 384 kts | 280° |
| 2026-05-05 02:44 | -26.69525 | 150.52026 | 32069 ft | 384 kts | 280° |
| 2026-05-05 02:45 | -26.69040 | 150.46078 | 32073 ft | 384 kts | 280° |
| 2026-05-05 02:45 | -26.68557 | 150.40129 | 32070 ft | 384 kts | 280° |
| 2026-05-05 02:46 | -26.68062 | 150.34185 | 32066 ft | 384 kts | 280° |
| 2026-05-05 02:46 | -26.67566 | 150.28244 | 32064 ft | 384 kts | 280° |
| 2026-05-05 02:47 | -26.67075 | 150.22309 | 32063 ft | 384 kts | 280° |
| 2026-05-05 02:47 | -26.66585 | 150.16368 | 32070 ft | 384 kts | 280° |
| 2026-05-05 02:48 | -26.66090 | 150.10429 | 32065 ft | 384 kts | 280° |
| 2026-05-05 02:48 | -26.65587 | 150.04529 | 32063 ft | 384 kts | 280° |
| 2026-05-05 02:49 | -26.65077 | 149.98594 | 32064 ft | 383 kts | 281° |
| 2026-05-05 02:49 | -26.64564 | 149.92663 | 32063 ft | 384 kts | 280° |
| 2026-05-05 02:50 | -26.64053 | 149.86724 | 32096 ft | 384 kts | 280° |
| 2026-05-05 02:50 | -26.63549 | 149.80782 | 32089 ft | 384 kts | 280° |
| 2026-05-05 02:51 | -26.63041 | 149.74853 | 32077 ft | 383 kts | 280° |
| 2026-05-05 02:51 | -26.62517 | 149.68921 | 32071 ft | 383 kts | 281° |
| 2026-05-05 02:52 | -26.61996 | 149.62988 | 32068 ft | 384 kts | 280° |
| 2026-05-05 02:52 | -26.61484 | 149.57051 | 32081 ft | 384 kts | 280° |
| 2026-05-05 02:53 | -26.60964 | 149.51152 | 32076 ft | 384 kts | 281° |
| 2026-05-05 02:53 | -26.60433 | 149.45209 | 32080 ft | 384 kts | 281° |
| 2026-05-05 02:54 | -26.59901 | 149.39265 | 32078 ft | 384 kts | 281° |
| 2026-05-05 02:54 | -26.59365 | 149.33319 | 32084 ft | 385 kts | 281° |
| 2026-05-05 02:55 | -26.58831 | 149.27377 | 32091 ft | 385 kts | 281° |
| 2026-05-05 02:55 | -26.58294 | 149.21429 | 32093 ft | 384 kts | 281° |
| 2026-05-05 02:56 | -26.57751 | 149.15480 | 32092 ft | 384 kts | 281° |
| 2026-05-05 02:56 | -26.57211 | 149.09539 | 32092 ft | 384 kts | 281° |
| 2026-05-05 02:57 | -26.56669 | 149.03634 | 32095 ft | 384 kts | 281° |
| 2026-05-05 02:57 | -26.56122 | 148.97690 | 32091 ft | 385 kts | 281° |
| 2026-05-05 02:58 | -26.55571 | 148.91737 | 32098 ft | 385 kts | 281° |
| 2026-05-05 02:58 | -26.55024 | 148.85784 | 32098 ft | 385 kts | 281° |
| 2026-05-05 02:59 | -26.54467 | 148.79826 | 32103 ft | 385 kts | 281° |
| 2026-05-05 02:59 | -26.53820 | 148.73891 | 32108 ft | 385 kts | 282° |
| 2026-05-05 03:00 | -26.53029 | 148.67987 | 32111 ft | 384 kts | 283° |
| 2026-05-05 03:00 | -26.52220 | 148.62125 | 32111 ft | 384 kts | 283° |
| 2026-05-05 03:01 | -26.51432 | 148.56223 | 32112 ft | 384 kts | 283° |
| 2026-05-05 03:01 | -26.50662 | 148.50315 | 32110 ft | 385 kts | 283° |
| 2026-05-05 03:02 | -26.49888 | 148.44409 | 32125 ft | 384 kts | 283° |
| 2026-05-05 03:02 | -26.49111 | 148.38507 | 32120 ft | 384 kts | 283° |
| 2026-05-05 03:03 | -26.48331 | 148.32603 | 32122 ft | 384 kts | 283° |
| 2026-05-05 03:03 | -26.47548 | 148.26698 | 32121 ft | 385 kts | 283° |
| 2026-05-05 03:04 | -26.46759 | 148.20794 | 32121 ft | 385 kts | 283° |
| 2026-05-05 03:04 | -26.45966 | 148.14888 | 32119 ft | 385 kts | 283° |
| 2026-05-05 03:05 | -26.45165 | 148.08982 | 32113 ft | 385 kts | 283° |
| 2026-05-05 03:05 | -26.44369 | 148.03080 | 32119 ft | 384 kts | 283° |
| 2026-05-05 03:06 | -26.43578 | 147.97217 | 32116 ft | 385 kts | 283° |
| 2026-05-05 03:06 | -26.42780 | 147.91320 | 32134 ft | 385 kts | 283° |
| 2026-05-05 03:07 | -26.41978 | 147.85416 | 32154 ft | 385 kts | 283° |
| 2026-05-05 03:07 | -26.41179 | 147.79518 | 32145 ft | 385 kts | 283° |
| 2026-05-05 03:08 | -26.40367 | 147.73615 | 32153 ft | 385 kts | 283° |
| 2026-05-05 03:08 | -26.39558 | 147.67715 | 32147 ft | 384 kts | 283° |
| 2026-05-05 03:09 | -26.38749 | 147.61824 | 32131 ft | 384 kts | 283° |
| 2026-05-05 03:09 | -26.37934 | 147.55928 | 32130 ft | 385 kts | 283° |
| 2026-05-05 03:10 | -26.37121 | 147.50068 | 32128 ft | 385 kts | 283° |
| 2026-05-05 03:10 | -26.36297 | 147.44166 | 32131 ft | 385 kts | 283° |
| 2026-05-05 03:11 | -26.35473 | 147.38261 | 32133 ft | 386 kts | 283° |
| 2026-05-05 03:11 | -26.34656 | 147.32348 | 32139 ft | 386 kts | 283° |
| 2026-05-05 03:12 | -26.33823 | 147.26438 | 32140 ft | 386 kts | 283° |
| 2026-05-05 03:12 | -26.32983 | 147.20526 | 32145 ft | 386 kts | 283° |
| 2026-05-05 03:13 | -26.32145 | 147.14602 | 32145 ft | 386 kts | 283° |
| 2026-05-05 03:13 | -26.31309 | 147.08688 | 32162 ft | 386 kts | 283° |
| 2026-05-05 03:14 | -26.30474 | 147.02826 | 32157 ft | 385 kts | 283° |
| 2026-05-05 03:14 | -26.29631 | 146.96941 | 32159 ft | 384 kts | 283° |
| 2026-05-05 03:15 | -26.28793 | 146.91063 | 32155 ft | 384 kts | 283° |
| 2026-05-05 03:15 | -26.28094 | 146.86179 | 32150 ft | 384 kts | 283° |
| 2026-05-05 03:16 | -26.27254 | 146.80306 | 32154 ft | 384 kts | 283° |
| 2026-05-05 03:16 | -26.26411 | 146.74418 | 32144 ft | 384 kts | 283° |
| 2026-05-05 03:17 | -26.25560 | 146.68538 | 32140 ft | 385 kts | 284° |
| 2026-05-05 03:17 | -26.24700 | 146.62655 | 32139 ft | 385 kts | 284° |
| 2026-05-05 03:18 | -26.23842 | 146.56768 | 32137 ft | 385 kts | 284° |
| 2026-05-05 03:18 | -26.22981 | 146.50890 | 32137 ft | 384 kts | 284° |
| 2026-05-05 03:19 | -26.21694 | 146.42063 | 32128 ft | 384 kts | 284° |
| 2026-05-05 03:19 | -26.20837 | 146.36226 | 32131 ft | 385 kts | 284° |
| 2026-05-05 03:20 | -26.19974 | 146.30341 | 32127 ft | 385 kts | 284° |
| 2026-05-05 03:20 | -26.19104 | 146.24450 | 32122 ft | 386 kts | 284° |
| 2026-05-05 03:21 | -26.18227 | 146.18544 | 32126 ft | 387 kts | 284° |
| 2026-05-05 03:21 | -26.17348 | 146.12633 | 32128 ft | 387 kts | 284° |
| 2026-05-05 03:22 | -26.16473 | 146.06722 | 32132 ft | 387 kts | 284° |
| 2026-05-05 03:22 | -26.15588 | 146.00811 | 32134 ft | 388 kts | 284° |
| 2026-05-05 03:23 | -26.14692 | 145.94875 | 32126 ft | 389 kts | 284° |
| 2026-05-05 03:23 | -26.13789 | 145.88928 | 32127 ft | 390 kts | 284° |
| 2026-05-05 03:24 | -26.12895 | 145.83007 | 32128 ft | 391 kts | 284° |
| 2026-05-05 03:24 | -26.11996 | 145.77044 | 32140 ft | 391 kts | 284° |
| 2026-05-05 03:25 | -26.11095 | 145.71076 | 32140 ft | 391 kts | 284° |
| 2026-05-05 03:25 | -26.10192 | 145.65117 | 32141 ft | 391 kts | 284° |
| 2026-05-05 03:26 | -26.09282 | 145.59153 | 32140 ft | 391 kts | 284° |
| 2026-05-05 03:26 | -26.08370 | 145.53198 | 32145 ft | 391 kts | 284° |
| 2026-05-05 03:27 | -26.07457 | 145.47236 | 32133 ft | 391 kts | 284° |
| 2026-05-05 03:27 | -26.06537 | 145.41272 | 32136 ft | 391 kts | 284° |
| 2026-05-05 03:28 | -26.05613 | 145.35300 | 32140 ft | 392 kts | 284° |
| 2026-05-05 03:28 | -26.04691 | 145.29325 | 32141 ft | 392 kts | 284° |
| 2026-05-05 03:29 | -26.03765 | 145.23359 | 32149 ft | 392 kts | 284° |
| 2026-05-05 03:29 | -26.02837 | 145.17395 | 32154 ft | 391 kts | 284° |
| 2026-05-05 03:30 | -26.01908 | 145.11430 | 32152 ft | 391 kts | 284° |
| 2026-05-05 03:30 | -26.00977 | 145.05476 | 32152 ft | 391 kts | 284° |
| 2026-05-05 03:31 | -26.00048 | 144.99563 | 32148 ft | 391 kts | 284° |
| 2026-05-05 03:31 | -25.99110 | 144.93608 | 32133 ft | 391 kts | 284° |
| 2026-05-05 03:32 | -25.98174 | 144.87653 | 32139 ft | 391 kts | 284° |
| 2026-05-05 03:32 | -25.97240 | 144.81692 | 32137 ft | 391 kts | 284° |
| 2026-05-05 03:33 | -25.96298 | 144.75734 | 32142 ft | 392 kts | 284° |
| 2026-05-05 03:33 | -25.95344 | 144.69771 | 32146 ft | 392 kts | 284° |
| 2026-05-05 03:34 | -25.94384 | 144.63803 | 32140 ft | 392 kts | 284° |
| 2026-05-05 03:34 | -25.93425 | 144.57828 | 32134 ft | 393 kts | 284° |
| 2026-05-05 03:35 | -25.92473 | 144.51855 | 32135 ft | 393 kts | 284° |
| 2026-05-05 03:35 | -25.91518 | 144.45874 | 32141 ft | 393 kts | 284° |
| 2026-05-05 03:36 | -25.90549 | 144.39889 | 32138 ft | 394 kts | 284° |
| 2026-05-05 03:36 | -25.89576 | 144.33900 | 32136 ft | 394 kts | 284° |
| 2026-05-05 03:37 | -25.88603 | 144.27938 | 32138 ft | 394 kts | 284° |
| 2026-05-05 03:37 | -25.87624 | 144.21940 | 32150 ft | 395 kts | 284° |
| 2026-05-05 03:38 | -25.86647 | 144.15934 | 32139 ft | 395 kts | 284° |
| 2026-05-05 03:38 | -25.85657 | 144.09917 | 32137 ft | 396 kts | 285° |
| 2026-05-05 03:39 | -25.84660 | 144.03903 | 32132 ft | 396 kts | 284° |
| 2026-05-05 03:39 | -25.83676 | 143.97890 | 32133 ft | 396 kts | 284° |
| 2026-05-05 03:40 | -25.82692 | 143.91865 | 32138 ft | 396 kts | 284° |
| 2026-05-05 03:40 | -25.81698 | 143.85890 | 32138 ft | 396 kts | 285° |
| 2026-05-05 03:41 | -25.80697 | 143.79873 | 32134 ft | 396 kts | 284° |
| 2026-05-05 03:41 | -25.79701 | 143.73860 | 32131 ft | 396 kts | 284° |
| 2026-05-05 03:42 | -25.78687 | 143.67844 | 32134 ft | 397 kts | 284° |
| 2026-05-05 03:42 | -25.77678 | 143.61814 | 32139 ft | 397 kts | 284° |
| 2026-05-05 03:43 | -25.76674 | 143.55789 | 32136 ft | 398 kts | 284° |
| 2026-05-05 03:43 | -25.75664 | 143.49792 | 32150 ft | 398 kts | 284° |
| 2026-05-05 03:44 | -25.74637 | 143.43748 | 32129 ft | 399 kts | 284° |
| 2026-05-05 03:44 | -25.73615 | 143.37682 | 32122 ft | 400 kts | 284° |
| 2026-05-05 03:45 | -25.72587 | 143.31605 | 32120 ft | 401 kts | 284° |
| 2026-05-05 03:45 | -25.71561 | 143.25571 | 32120 ft | 401 kts | 284° |
| 2026-05-05 03:46 | -25.70512 | 143.19448 | 32115 ft | 402 kts | 284° |
| 2026-05-05 03:46 | -25.69474 | 143.13393 | 32116 ft | 403 kts | 284° |
| 2026-05-05 03:47 | -25.68427 | 143.07285 | 32116 ft | 403 kts | 284° |
| 2026-05-05 03:47 | -25.67379 | 143.01182 | 32117 ft | 403 kts | 284° |
| 2026-05-05 03:48 | -25.66323 | 142.95068 | 32118 ft | 404 kts | 284° |
| 2026-05-05 03:48 | -25.65267 | 142.88944 | 32116 ft | 405 kts | 284° |
| 2026-05-05 03:49 | -25.64206 | 142.82810 | 32118 ft | 405 kts | 284° |
| 2026-05-05 03:49 | -25.63142 | 142.76672 | 32120 ft | 406 kts | 284° |
| 2026-05-05 03:50 | -25.62072 | 142.70532 | 32124 ft | 406 kts | 283° |
| 2026-05-05 03:50 | -25.60989 | 142.64380 | 32122 ft | 407 kts | 283° |
| 2026-05-05 03:51 | -25.59919 | 142.58227 | 32122 ft | 407 kts | 283° |
| 2026-05-05 03:51 | -25.58853 | 142.52101 | 32123 ft | 407 kts | 283° |
| 2026-05-05 03:52 | -25.57762 | 142.45939 | 32120 ft | 408 kts | 283° |
| 2026-05-05 03:52 | -25.56667 | 142.39773 | 32121 ft | 408 kts | 283° |
| 2026-05-05 03:53 | -25.55576 | 142.33600 | 32126 ft | 409 kts | 283° |
| 2026-05-05 03:53 | -25.54480 | 142.27421 | 32132 ft | 409 kts | 283° |
| 2026-05-05 03:54 | -25.53382 | 142.21238 | 32133 ft | 409 kts | 283° |
| 2026-05-05 03:54 | -25.52284 | 142.15060 | 32131 ft | 409 kts | 283° |
| 2026-05-05 03:55 | -25.51188 | 142.08920 | 32132 ft | 409 kts | 283° |
| 2026-05-05 03:55 | -25.50079 | 142.02741 | 32138 ft | 409 kts | 283° |
| 2026-05-05 03:56 | -25.48968 | 141.96560 | 32137 ft | 410 kts | 283° |
| 2026-05-05 03:56 | -25.47861 | 141.90373 | 32139 ft | 410 kts | 283° |
| 2026-05-05 03:57 | -25.46748 | 141.84183 | 32138 ft | 410 kts | 283° |
| 2026-05-05 03:57 | -25.45632 | 141.77995 | 32138 ft | 410 kts | 283° |
| 2026-05-05 03:58 | -25.44500 | 141.71801 | 32138 ft | 410 kts | 283° |
| 2026-05-05 03:58 | -25.43371 | 141.65608 | 32141 ft | 410 kts | 283° |
| 2026-05-05 03:59 | -25.42243 | 141.59415 | 32141 ft | 410 kts | 283° |
| 2026-05-05 03:59 | -25.41114 | 141.53226 | 32156 ft | 411 kts | 283° |
| 2026-05-05 04:00 | -25.39982 | 141.47036 | 32147 ft | 411 kts | 283° |
| 2026-05-05 04:00 | -25.38850 | 141.40883 | 32144 ft | 411 kts | 283° |
| 2026-05-05 04:01 | -25.37700 | 141.34682 | 32149 ft | 412 kts | 283° |
| 2026-05-05 04:01 | -25.36557 | 141.28472 | 32144 ft | 412 kts | 283° |
| 2026-05-05 04:02 | -25.35411 | 141.22260 | 32144 ft | 412 kts | 283° |
| 2026-05-05 04:02 | -25.34258 | 141.16043 | 32147 ft | 413 kts | 283° |
| 2026-05-05 04:03 | -25.33107 | 141.09828 | 32140 ft | 413 kts | 283° |
| 2026-05-05 04:03 | -25.31947 | 141.03612 | 32142 ft | 413 kts | 283° |
| 2026-05-05 04:04 | -25.30784 | 140.97395 | 32135 ft | 413 kts | 283° |
| 2026-05-05 04:04 | -25.29616 | 140.91175 | 32140 ft | 414 kts | 283° |
| 2026-05-05 04:05 | -25.28456 | 140.84986 | 32141 ft | 414 kts | 282° |
| 2026-05-05 04:05 | -25.27281 | 140.78751 | 32144 ft | 415 kts | 282° |
| 2026-05-05 04:06 | -25.26690 | 140.75621 | 32343 ft | 417 kts | 282° |
| 2026-05-05 04:06 | -25.26098 | 140.72494 | 32657 ft | 416 kts | 282° |
| 2026-05-05 04:06 | -25.25507 | 140.69374 | 32987 ft | 414 kts | 282° |
| 2026-05-05 04:06 | -25.25108 | 140.67272 | 33215 ft | 413 kts | 282° |
| 2026-05-05 04:07 | -25.24522 | 140.64173 | 33530 ft | 412 kts | 282° |
| 2026-05-05 04:07 | -25.23943 | 140.61122 | 33823 ft | 411 kts | 282° |
| 2026-05-05 04:07 | -25.23357 | 140.58037 | 34100 ft | 411 kts | 282° |
| 2026-05-05 04:07 | -25.22774 | 140.54956 | 34167 ft | 410 kts | 282° |
| 2026-05-05 04:08 | -25.21605 | 140.48803 | 34158 ft | 409 kts | 282° |
| 2026-05-05 04:08 | -25.20433 | 140.42660 | 34165 ft | 409 kts | 282° |
| 2026-05-05 04:09 | -25.19250 | 140.36515 | 34164 ft | 410 kts | 282° |
| 2026-05-05 04:09 | -25.18069 | 140.30355 | 34168 ft | 410 kts | 282° |
| 2026-05-05 04:10 | -25.16884 | 140.24193 | 34168 ft | 410 kts | 282° |
| 2026-05-05 04:10 | -25.15700 | 140.18073 | 34156 ft | 410 kts | 282° |
| 2026-05-05 04:11 | -25.14512 | 140.11912 | 34155 ft | 411 kts | 282° |
| 2026-05-05 04:11 | -25.13323 | 140.05741 | 34168 ft | 411 kts | 282° |
| 2026-05-05 04:12 | -25.12123 | 139.99573 | 34167 ft | 411 kts | 282° |
| 2026-05-05 04:12 | -25.10916 | 139.93403 | 34167 ft | 411 kts | 282° |
| 2026-05-05 04:13 | -25.09718 | 139.87225 | 34172 ft | 412 kts | 282° |
| 2026-05-05 04:13 | -25.08526 | 139.81085 | 34174 ft | 412 kts | 282° |
| 2026-05-05 04:14 | -25.07314 | 139.74900 | 34180 ft | 413 kts | 282° |
| 2026-05-05 04:14 | -25.06094 | 139.68712 | 34177 ft | 413 kts | 282° |
| 2026-05-05 04:15 | -25.04872 | 139.62527 | 34196 ft | 413 kts | 282° |
| 2026-05-05 04:15 | -25.03653 | 139.56326 | 34190 ft | 414 kts | 282° |
| 2026-05-05 04:16 | -25.02431 | 139.50123 | 34184 ft | 414 kts | 282° |
| 2026-05-05 04:16 | -25.01193 | 139.43922 | 34186 ft | 414 kts | 282° |
| 2026-05-05 04:17 | -24.99954 | 139.37711 | 34189 ft | 414 kts | 282° |
| 2026-05-05 04:17 | -24.98716 | 139.31507 | 34188 ft | 414 kts | 282° |
| 2026-05-05 04:18 | -24.97486 | 139.25303 | 34187 ft | 414 kts | 282° |
| 2026-05-05 04:18 | -24.96248 | 139.19098 | 34188 ft | 414 kts | 282° |
| 2026-05-05 04:19 | -24.95002 | 139.12904 | 34191 ft | 414 kts | 282° |
| 2026-05-05 04:19 | -24.93765 | 139.06746 | 34184 ft | 414 kts | 282° |
| 2026-05-05 04:20 | -24.92523 | 139.00559 | 34185 ft | 414 kts | 282° |
| 2026-05-05 04:20 | -24.91279 | 138.94368 | 34186 ft | 414 kts | 282° |
| 2026-05-05 04:21 | -24.90035 | 138.88184 | 34189 ft | 414 kts | 282° |
| 2026-05-05 04:21 | -24.88776 | 138.81999 | 34183 ft | 413 kts | 282° |
| 2026-05-05 04:22 | -24.87510 | 138.75818 | 34182 ft | 414 kts | 282° |
| 2026-05-05 04:22 | -24.86251 | 138.69637 | 34180 ft | 414 kts | 282° |
| 2026-05-05 04:23 | -24.84999 | 138.63456 | 34173 ft | 413 kts | 282° |
| 2026-05-05 04:23 | -24.83747 | 138.57321 | 34177 ft | 413 kts | 282° |
| 2026-05-05 04:24 | -24.82473 | 138.51153 | 34179 ft | 413 kts | 282° |
| 2026-05-05 04:25 | -24.80576 | 138.41906 | 34176 ft | 413 kts | 282° |
| 2026-05-05 04:25 | -24.79304 | 138.35746 | 34173 ft | 413 kts | 282° |
| 2026-05-05 04:26 | -24.78033 | 138.29584 | 34170 ft | 413 kts | 282° |
| 2026-05-05 04:26 | -24.76762 | 138.23420 | 34174 ft | 413 kts | 282° |
| 2026-05-05 04:27 | -24.75482 | 138.17255 | 34176 ft | 413 kts | 282° |
| 2026-05-05 04:27 | -24.74197 | 138.11091 | 34180 ft | 414 kts | 282° |
| 2026-05-05 04:28 | -24.72911 | 138.04924 | 34183 ft | 414 kts | 282° |
| 2026-05-05 04:28 | -24.71623 | 137.98752 | 34179 ft | 413 kts | 282° |
| 2026-05-05 04:29 | -24.70331 | 137.92598 | 34183 ft | 413 kts | 282° |
| 2026-05-05 04:29 | -24.69053 | 137.86488 | 34183 ft | 412 kts | 282° |
| 2026-05-05 04:30 | -24.67765 | 137.80337 | 34187 ft | 412 kts | 282° |
| 2026-05-05 04:30 | -24.66461 | 137.74197 | 34178 ft | 412 kts | 282° |
| 2026-05-05 04:31 | -24.65163 | 137.68054 | 34176 ft | 413 kts | 282° |
| 2026-05-05 04:31 | -24.63868 | 137.61905 | 34177 ft | 413 kts | 282° |
| 2026-05-05 04:32 | -24.62563 | 137.55753 | 34177 ft | 413 kts | 282° |
| 2026-05-05 04:32 | -24.61253 | 137.49601 | 34182 ft | 413 kts | 282° |
| 2026-05-05 04:33 | -24.59953 | 137.43493 | 34185 ft | 413 kts | 282° |
| 2026-05-05 04:33 | -24.58638 | 137.37342 | 34176 ft | 413 kts | 282° |
| 2026-05-05 04:34 | -24.57326 | 137.31199 | 34180 ft | 413 kts | 282° |
| 2026-05-05 04:34 | -24.56014 | 137.25061 | 34183 ft | 413 kts | 282° |
| 2026-05-05 04:35 | -24.54699 | 137.18928 | 34183 ft | 412 kts | 282° |
| 2026-05-05 04:35 | -24.53375 | 137.12791 | 34181 ft | 412 kts | 282° |
| 2026-05-05 04:36 | -24.52054 | 137.06668 | 34180 ft | 412 kts | 282° |
| 2026-05-05 04:36 | -24.50730 | 137.00541 | 34179 ft | 412 kts | 282° |
| 2026-05-05 04:37 | -24.49403 | 136.94417 | 34176 ft | 412 kts | 282° |
| 2026-05-05 04:37 | -24.48076 | 136.88298 | 34180 ft | 412 kts | 282° |
| 2026-05-05 04:38 | -24.46751 | 136.82190 | 34185 ft | 411 kts | 282° |
| 2026-05-05 04:38 | -24.45418 | 136.76086 | 34178 ft | 411 kts | 282° |
| 2026-05-05 04:39 | -24.44078 | 136.69989 | 34182 ft | 411 kts | 282° |
| 2026-05-05 04:39 | -24.42745 | 136.63935 | 34180 ft | 411 kts | 282° |
| 2026-05-05 04:40 | -24.41404 | 136.57841 | 34176 ft | 411 kts | 282° |
| 2026-05-05 04:40 | -24.40061 | 136.51754 | 34175 ft | 411 kts | 282° |
| 2026-05-05 04:41 | -24.38716 | 136.45667 | 34179 ft | 410 kts | 282° |
| 2026-05-05 04:41 | -24.37372 | 136.39577 | 34176 ft | 410 kts | 282° |
| 2026-05-05 04:42 | -24.36032 | 136.33493 | 34175 ft | 410 kts | 282° |
| 2026-05-05 04:42 | -24.34689 | 136.27418 | 34180 ft | 410 kts | 282° |
| 2026-05-05 04:43 | -24.33335 | 136.21350 | 34180 ft | 410 kts | 282° |
| 2026-05-05 04:43 | -24.31987 | 136.15320 | 34171 ft | 409 kts | 282° |
| 2026-05-05 04:44 | -24.30632 | 136.09251 | 34185 ft | 410 kts | 282° |
| 2026-05-05 04:44 | -24.29270 | 136.03182 | 34183 ft | 410 kts | 282° |
| 2026-05-05 04:45 | -24.27901 | 135.97115 | 34182 ft | 410 kts | 282° |
| 2026-05-05 04:45 | -24.26536 | 135.91046 | 34183 ft | 410 kts | 282° |
| 2026-05-05 04:46 | -24.25174 | 135.84978 | 34182 ft | 410 kts | 282° |
| 2026-05-05 04:46 | -24.23805 | 135.78920 | 34183 ft | 410 kts | 282° |
| 2026-05-05 04:47 | -24.22434 | 135.72862 | 34185 ft | 410 kts | 282° |
| 2026-05-05 04:47 | -24.21060 | 135.66805 | 34190 ft | 409 kts | 282° |
| 2026-05-05 04:48 | -24.19692 | 135.60796 | 34193 ft | 409 kts | 282° |
| 2026-05-05 04:48 | -24.18319 | 135.54747 | 34194 ft | 409 kts | 282° |
| 2026-05-05 04:49 | -24.16942 | 135.48703 | 34192 ft | 409 kts | 282° |
| 2026-05-05 04:49 | -24.15563 | 135.42666 | 34191 ft | 409 kts | 282° |
| 2026-05-05 04:50 | -24.14187 | 135.36632 | 34188 ft | 408 kts | 282° |
| 2026-05-05 04:50 | -24.12806 | 135.30609 | 34194 ft | 408 kts | 282° |
| 2026-05-05 04:51 | -24.11426 | 135.24592 | 34191 ft | 407 kts | 282° |
| 2026-05-05 04:51 | -24.10040 | 135.18573 | 34189 ft | 407 kts | 282° |
| 2026-05-05 04:52 | -24.08659 | 135.12609 | 34192 ft | 407 kts | 282° |
| 2026-05-05 04:52 | -24.07274 | 135.06601 | 34184 ft | 407 kts | 282° |
| 2026-05-05 04:53 | -24.05893 | 135.00593 | 34185 ft | 407 kts | 282° |
| 2026-05-05 04:53 | -24.04502 | 134.94590 | 34177 ft | 407 kts | 282° |
| 2026-05-05 04:54 | -24.03106 | 134.88595 | 34180 ft | 407 kts | 282° |
| 2026-05-05 04:54 | -24.01710 | 134.82602 | 34181 ft | 406 kts | 282° |
| 2026-05-05 04:55 | -24.00310 | 134.76606 | 34184 ft | 406 kts | 282° |
| 2026-05-05 04:55 | -23.98909 | 134.70623 | 34170 ft | 406 kts | 282° |
| 2026-05-05 04:56 | -23.97506 | 134.64637 | 34178 ft | 406 kts | 282° |
| 2026-05-05 04:56 | -23.96343 | 134.59670 | 34175 ft | 406 kts | 282° |
| 2026-05-05 04:57 | -23.94703 | 134.52683 | 34178 ft | 406 kts | 282° |
| 2026-05-05 04:57 | -23.93529 | 134.47722 | 34180 ft | 406 kts | 282° |
| 2026-05-05 04:58 | -23.92121 | 134.41755 | 34185 ft | 405 kts | 282° |
| 2026-05-05 04:58 | -23.90711 | 134.35785 | 34169 ft | 405 kts | 282° |
| 2026-05-05 04:59 | -23.89300 | 134.29822 | 34166 ft | 405 kts | 281° |
| 2026-05-05 04:59 | -23.87902 | 134.23907 | 34170 ft | 404 kts | 282° |
| 2026-05-05 05:00 | -23.86490 | 134.17962 | 34175 ft | 404 kts | 282° |
| 2026-05-05 05:00 | -23.85067 | 134.12015 | 34174 ft | 404 kts | 282° |
| 2026-05-05 05:01 | -23.83651 | 134.06073 | 34199 ft | 404 kts | 282° |
| 2026-05-05 05:01 | -23.82234 | 134.00126 | 34204 ft | 405 kts | 282° |
| 2026-05-05 05:02 | -23.80816 | 133.94177 | 34188 ft | 405 kts | 282° |
| 2026-05-05 05:02 | -23.79393 | 133.88228 | 34194 ft | 404 kts | 280° |
| 2026-05-05 05:03 | -23.78470 | 133.82189 | 34201 ft | 403 kts | 277° |
| 2026-05-05 05:03 | -23.77595 | 133.76142 | 34195 ft | 403 kts | 277° |
| 2026-05-05 05:04 | -23.76717 | 133.70092 | 34189 ft | 403 kts | 277° |
| 2026-05-05 05:04 | -23.75835 | 133.64041 | 34180 ft | 404 kts | 277° |
| 2026-05-05 05:05 | -23.74957 | 133.58026 | 34169 ft | 404 kts | 277° |
| 2026-05-05 05:05 | -23.74068 | 133.51972 | 34141 ft | 404 kts | 277° |
| 2026-05-05 05:06 | -23.73179 | 133.45916 | 34146 ft | 404 kts | 277° |
| 2026-05-05 05:06 | -23.72290 | 133.39858 | 34150 ft | 404 kts | 277° |
| 2026-05-05 05:07 | -23.71395 | 133.33806 | 34160 ft | 404 kts | 277° |
| 2026-05-05 05:07 | -23.70499 | 133.27743 | 34164 ft | 404 kts | 277° |
| 2026-05-05 05:08 | -23.69601 | 133.21687 | 34174 ft | 404 kts | 277° |
| 2026-05-05 05:08 | -23.68697 | 133.15627 | 34159 ft | 405 kts | 277° |
| 2026-05-05 05:09 | -23.67785 | 133.09569 | 34156 ft | 405 kts | 277° |
| 2026-05-05 05:09 | -23.66883 | 133.03534 | 34134 ft | 405 kts | 278° |
| 2026-05-05 05:10 | -23.65974 | 132.97463 | 34150 ft | 405 kts | 278° |
| 2026-05-05 05:10 | -23.65064 | 132.91401 | 34161 ft | 405 kts | 278° |
| 2026-05-05 05:11 | -23.64144 | 132.85342 | 34161 ft | 405 kts | 278° |
| 2026-05-05 05:11 | -23.63229 | 132.79283 | 34152 ft | 405 kts | 278° |
| 2026-05-05 05:12 | -23.62316 | 132.73227 | 34161 ft | 405 kts | 278° |
| 2026-05-05 05:12 | -23.61392 | 132.67162 | 34154 ft | 405 kts | 278° |
| 2026-05-05 05:13 | -23.60459 | 132.61098 | 34155 ft | 405 kts | 278° |
| 2026-05-05 05:13 | -23.59526 | 132.55038 | 34152 ft | 405 kts | 278° |
| 2026-05-05 05:14 | -23.58604 | 132.49018 | 34155 ft | 405 kts | 278° |
| 2026-05-05 05:14 | -23.57677 | 132.42964 | 34151 ft | 405 kts | 278° |
| 2026-05-05 05:15 | -23.56741 | 132.36910 | 34159 ft | 405 kts | 278° |
| 2026-05-05 05:15 | -23.55794 | 132.30852 | 34160 ft | 405 kts | 278° |
| 2026-05-05 05:16 | -23.54851 | 132.24796 | 34146 ft | 405 kts | 278° |
| 2026-05-05 05:16 | -23.53915 | 132.18739 | 34154 ft | 405 kts | 278° |
| 2026-05-05 05:17 | -23.52970 | 132.12679 | 34146 ft | 406 kts | 278° |
| 2026-05-05 05:17 | -23.52019 | 132.06615 | 34133 ft | 405 kts | 278° |
| 2026-05-05 05:18 | -23.51082 | 132.00612 | 34152 ft | 404 kts | 278° |
| 2026-05-05 05:18 | -23.50135 | 131.94589 | 34165 ft | 403 kts | 278° |
| 2026-05-05 05:19 | -23.49185 | 131.88572 | 34152 ft | 403 kts | 278° |
| 2026-05-05 05:19 | -23.48237 | 131.82561 | 34139 ft | 403 kts | 278° |
| 2026-05-05 05:20 | -23.47284 | 131.76549 | 34149 ft | 403 kts | 278° |
| 2026-05-05 05:20 | -23.46332 | 131.70539 | 34143 ft | 402 kts | 278° |
| 2026-05-05 05:21 | -23.45381 | 131.64527 | 34140 ft | 402 kts | 278° |
| 2026-05-05 05:21 | -23.44419 | 131.58528 | 34121 ft | 402 kts | 278° |
| 2026-05-05 05:22 | -23.43469 | 131.52578 | 34143 ft | 400 kts | 278° |
| 2026-05-05 05:22 | -23.42514 | 131.46605 | 34144 ft | 399 kts | 278° |
| 2026-05-05 05:23 | -23.41549 | 131.40644 | 34140 ft | 399 kts | 278° |
| 2026-05-05 05:23 | -23.40592 | 131.34702 | 34144 ft | 398 kts | 278° |
| 2026-05-05 05:24 | -23.39634 | 131.28762 | 34138 ft | 398 kts | 278° |
| 2026-05-05 05:24 | -23.38669 | 131.22828 | 34134 ft | 398 kts | 278° |
| 2026-05-05 05:25 | -23.37709 | 131.16933 | 34131 ft | 398 kts | 278° |
| 2026-05-05 05:25 | -23.36743 | 131.10993 | 34134 ft | 398 kts | 278° |
| 2026-05-05 05:26 | -23.35775 | 131.05075 | 34114 ft | 397 kts | 278° |